Time;durP1;ratioP1;P1;durP2;ratioP2;P2;SDS_P1;SDS_P2;PMS_P1;PMS_P2;Temp;Humidity;BMP_temperature;BMP_pressure;BME280_temperature;BME280_humidity;BME280_pressure;Samples;Min_cycle;Max_cycle;Signal;HPM_P1;HPM_P2
2023/01/22 00:01:49;;;;;;;4.68;2.78;;;;;;;;;;5108092;28;20044;-74
2023/01/22 00:04:19;;;;;;;4.72;2.30;;;;;;;;;;5107315;28;20611;-74
2023/01/22 00:06:49;;;;;;;5.28;2.00;;;;;;;;;;5106404;28;20741;-74
2023/01/22 00:09:21;;;;;;;5.97;2.78;;;;;;;;;;5087787;28;20054;-74
2023/01/22 00:11:52;;;;;;;5.97;2.80;;;;;;;;;;5106491;28;20509;-74
2023/01/22 00:14:23;;;;;;;4.72;2.25;;;;;;;;;;5106384;28;20054;-75
2023/01/22 00:16:53;;;;;;;5.80;2.80;;;;;;;;;;5106650;28;20548;-74
2023/01/22 00:19:23;;;;;;;5.85;3.03;;;;;;;;;;5105424;28;20677;-73
2023/01/22 00:21:54;;;;;;;4.38;2.38;;;;;;;;;;5107179;28;20051;-74
2023/01/22 00:24:26;;;;;;;10.20;3.30;;;;;;;;;;5088317;28;20066;-73
2023/01/22 00:26:55;;;;;;;12.23;2.90;;;;;;;;;;5106936;28;20040;-74
2023/01/22 00:29:33;;;;;;;4.32;2.33;;;;;;;;;;5088316;28;20070;-73
2023/01/22 00:32:04;;;;;;;10.27;2.70;;;;;;;;;;5106905;28;20044;-79
2023/01/22 00:34:35;;;;;;;8.60;2.65;;;;;;;;;;5110537;28;20047;-73
2023/01/22 00:37:06;;;;;;;4.20;2.40;;;;;;;;;;5110268;28;20039;-73
2023/01/22 00:39:37;;;;;;;6.18;2.90;;;;;;;;;;5110044;28;20050;-73
2023/01/22 00:42:08;;;;;;;4.40;2.35;;;;;;;;;;5109245;28;20039;-73
2023/01/22 00:44:39;;;;;;;6.00;2.45;;;;;;;;;;5110334;28;20051;-73
2023/01/22 00:47:09;;;;;;;4.22;3.17;;;;;;;;;;5109469;28;20051;-72
2023/01/22 00:49:39;;;;;;;8.18;2.80;;;;;;;;;;5109834;28;20044;-73
2023/01/22 00:52:09;;;;;;;6.35;2.78;;;;;;;;;;5110121;28;20044;-72
2023/01/22 00:54:40;;;;;;;7.07;2.70;;;;;;;;;;5110179;28;20062;-74
2023/01/22 00:57:10;;;;;;;4.45;2.70;;;;;;;;;;5109791;28;20059;-74
2023/01/22 00:59:42;;;;;;;4.30;2.42;;;;;;;;;;5091500;28;20040;-73
2023/01/22 01:02:13;;;;;;;5.30;2.38;;;;;;;;;;5090675;28;20555;-74
2023/01/22 01:04:43;;;;;;;3.78;2.60;;;;;;;;;;5109730;28;20084;-73
2023/01/22 01:07:13;;;;;;;5.55;3.08;;;;;;;;;;5090859;28;20048;-73
2023/01/22 01:09:44;;;;;;;8.45;2.70;;;;;;;;;;5090850;28;20055;-73
2023/01/22 01:12:14;;;;;;;3.00;2.22;;;;;;;;;;5090821;28;20058;-74
2023/01/22 01:14:45;;;;;;;5.47;3.00;;;;;;;;;;5109069;28;20052;-73
2023/01/22 01:17:15;;;;;;;4.15;2.70;;;;;;;;;;5090827;28;20051;-72
2023/01/22 01:19:45;;;;;;;10.63;3.28;;;;;;;;;;5110120;28;20050;-73
2023/01/22 01:22:16;;;;;;;5.50;3.60;;;;;;;;;;5090972;28;20047;-72
2023/01/22 01:24:45;;;;;;;6.50;2.72;;;;;;;;;;5090569;28;20066;-72
2023/01/22 01:27:15;;;;;;;10.40;3.45;;;;;;;;;;5090291;28;20043;-74
2023/01/22 01:29:46;;;;;;;6.22;3.25;;;;;;;;;;5091374;28;20043;-73
2023/01/22 01:32:18;;;;;;;8.70;3.17;;;;;;;;;;5090381;28;20055;-72
2023/01/22 01:34:49;;;;;;;4.88;3.05;;;;;;;;;;5091173;28;20528;-72
2023/01/22 01:37:19;;;;;;;7.32;3.30;;;;;;;;;;5109242;28;20052;-73
2023/01/22 01:39:52;;;;;;;5.75;3.53;;;;;;;;;;5090066;28;20051;-76
2023/01/22 01:42:31;;;;;;;11.27;3.47;;;;;;;;;;5109538;28;20062;-73
2023/01/22 01:45:28;;;;;;;11.27;4.25;;;;;;;;;;5108804;28;20393;-73
2023/01/22 01:48:34;;;;;;;8.32;3.50;;;;;;;;;;5107946;28;20055;-72
2023/01/22 01:51:05;;;;;;;8.60;3.38;;;;;;;;;;5108637;28;20062;-73
2023/01/22 01:53:37;;;;;;;6.43;3.25;;;;;;;;;;5108820;28;20054;-74
2023/01/22 01:56:12;;;;;;;8.38;3.97;;;;;;;;;;5108570;28;20510;-73
2023/01/22 01:58:47;;;;;;;8.45;4.05;;;;;;;;;;5089853;28;20058;-72
2023/01/22 02:01:19;;;;;;;7.55;3.83;;;;;;;;;;5108776;28;20474;-73
2023/01/22 02:03:52;;;;;;;6.32;3.58;;;;;;;;;;5088156;28;20505;-73
2023/01/22 02:06:23;;;;;;;6.57;3.00;;;;;;;;;;5069424;28;20430;-73
2023/01/22 02:08:56;;;;;;;9.38;3.00;;;;;;;;;;5085086;28;20044;-73
2023/01/22 02:11:28;;;;;;;6.95;3.08;;;;;;;;;;5084389;28;20052;-74
2023/01/22 02:14:06;;;;;;;9.25;3.40;;;;;;;;;;5085883;28;20050;-73
2023/01/22 02:16:39;;;;;;;7.45;3.28;;;;;;;;;;5067703;28;20840;-72
2023/01/22 02:19:10;;;;;;;7.93;3.20;;;;;;;;;;5086716;28;20392;-73
2023/01/22 02:21:46;;;;;;;9.07;3.35;;;;;;;;;;5086164;28;20040;-74
2023/01/22 02:24:17;;;;;;;8.40;3.45;;;;;;;;;;5087105;28;20044;-74
2023/01/22 02:26:48;;;;;;;5.88;3.15;;;;;;;;;;5069214;28;20055;-73
2023/01/22 02:29:21;;;;;;;8.77;2.92;;;;;;;;;;5069424;28;20079;-72
2023/01/22 02:31:52;;;;;;;5.18;2.58;;;;;;;;;;5088196;28;20040;-74
2023/01/22 02:34:23;;;;;;;4.43;3.15;;;;;;;;;;5069745;28;20060;-73
2023/01/22 02:36:56;;;;;;;10.52;2.90;;;;;;;;;;5069014;28;20056;-74
2023/01/22 02:39:26;;;;;;;6.65;3.28;;;;;;;;;;5069459;28;20052;-73
2023/01/22 02:41:57;;;;;;;6.30;3.20;;;;;;;;;;5069528;28;20518;-73
2023/01/22 02:44:27;;;;;;;11.45;3.35;;;;;;;;;;5069206;28;20056;-74
2023/01/22 02:46:58;;;;;;;6.03;2.83;;;;;;;;;;5068716;28;20059;-73
2023/01/22 02:49:29;;;;;;;10.52;2.75;;;;;;;;;;5068631;28;20055;-73
2023/01/22 02:52:00;;;;;;;5.03;2.60;;;;;;;;;;5069143;28;20055;-74
2023/01/22 02:54:32;;;;;;;7.40;2.90;;;;;;;;;;5068830;28;20071;-73
2023/01/22 02:57:02;;;;;;;4.85;3.10;;;;;;;;;;5068463;28;20133;-73
2023/01/22 02:59:34;;;;;;;4.95;2.60;;;;;;;;;;5068635;28;20052;-75
2023/01/22 03:02:04;;;;;;;7.82;2.47;;;;;;;;;;5086888;28;20055;-73
2023/01/22 03:04:34;;;;;;;9.02;2.85;;;;;;;;;;5068877;28;20056;-73
2023/01/22 03:07:05;;;;;;;7.45;3.20;;;;;;;;;;5068928;28;20067;-73
2023/01/22 03:09:36;;;;;;;7.53;3.00;;;;;;;;;;5068526;28;20083;-73
2023/01/22 03:12:07;;;;;;;10.70;2.72;;;;;;;;;;5068612;28;20056;-73
2023/01/22 03:23:04;;;;;;;9.50;2.90;;;;;;;;;;5068391;28;20063;-73
2023/01/22 03:25:35;;;;;;;12.35;3.22;;;;;;;;;;5051706;28;20525;-73
2023/01/22 03:28:15;;;;;;;11.05;2.92;;;;;;;;;;5070119;28;20477;-74
2023/01/22 03:30:51;;;;;;;7.78;2.58;;;;;;;;;;5068629;28;20059;-74
2023/01/22 03:33:22;;;;;;;7.75;2.70;;;;;;;;;;5068817;28;20064;-74
2023/01/22 03:35:53;;;;;;;4.85;2.40;;;;;;;;;;5068414;28;20051;-72
2023/01/22 03:38:23;;;;;;;4.65;3.08;;;;;;;;;;5068174;28;20056;-74
2023/01/22 03:41:11;;;;;;;8.27;3.08;;;;;;;;;;5068329;28;20056;-74
2023/01/22 03:43:45;;;;;;;16.02;3.17;;;;;;;;;;5068300;28;20062;-73
2023/01/22 03:46:19;;;;;;;13.15;3.08;;;;;;;;;;5067795;28;20060;-74
2023/01/22 03:48:54;;;;;;;9.07;2.78;;;;;;;;;;5067599;28;20518;-73
2023/01/22 03:51:27;;;;;;;13.43;3.40;;;;;;;;;;5052541;28;20052;-74
2023/01/22 03:53:59;;;;;;;5.18;2.67;;;;;;;;;;5086433;28;20040;-74
2023/01/22 03:56:29;;;;;;;6.95;2.78;;;;;;;;;;5068150;28;20052;-72
2023/01/22 03:59:05;;;;;;;10.20;2.88;;;;;;;;;;5068689;28;20400;-72
2023/01/22 04:01:37;;;;;;;7.97;3.08;;;;;;;;;;5068032;28;20056;-73
2023/01/22 04:04:08;;;;;;;11.43;3.22;;;;;;;;;;5067929;28;20048;-74
2023/01/22 04:06:41;;;;;;;9.35;3.17;;;;;;;;;;5086431;28;20518;-72
2023/01/22 04:09:13;;;;;;;6.70;3.28;;;;;;;;;;5072100;28;20075;-73
2023/01/22 04:11:48;;;;;;;6.50;2.75;;;;;;;;;;5087562;28;20414;-73
2023/01/22 04:14:19;;;;;;;12.95;3.00;;;;;;;;;;5109511;28;20055;-72
2023/01/22 04:16:57;;;;;;;8.85;3.20;;;;;;;;;;5092000;28;20048;-72
2023/01/22 04:19:47;;;;;;;4.80;2.70;;;;;;;;;;5092159;28;20059;-72
2023/01/22 04:22:44;;;;;;;12.70;3.10;;;;;;;;;;5091550;28;20051;-73
2023/01/22 04:25:16;;;;;;;7.35;2.95;;;;;;;;;;5091817;28;20047;-73
2023/01/22 04:27:47;;;;;;;8.13;3.08;;;;;;;;;;5091826;28;20368;-73
2023/01/22 04:30:19;;;;;;;9.88;3.00;;;;;;;;;;5090890;28;20051;-73
2023/01/22 04:32:58;;;;;;;10.98;3.35;;;;;;;;;;5091688;28;20047;-73
2023/01/22 04:35:38;;;;;;;9.23;3.33;;;;;;;;;;5091452;28;20074;-73
2023/01/22 04:38:12;;;;;;;8.07;3.40;;;;;;;;;;5091111;28;20070;-74
2023/01/22 04:40:42;;;;;;;7.80;3.25;;;;;;;;;;5091267;28;20056;-74
2023/01/22 04:43:13;;;;;;;13.60;3.20;;;;;;;;;;5090615;28;20043;-73
2023/01/22 04:45:44;;;;;;;9.23;2.78;;;;;;;;;;5091072;28;20048;-72
2023/01/22 04:48:14;;;;;;;6.40;3.45;;;;;;;;;;5091075;28;20051;-73
2023/01/22 04:50:44;;;;;;;12.85;3.17;;;;;;;;;;5090572;28;20067;-74
2023/01/22 04:53:15;;;;;;;8.82;2.95;;;;;;;;;;5090949;28;20513;-72
2023/01/22 04:55:48;;;;;;;7.07;2.88;;;;;;;;;;5090813;28;20047;-73
2023/01/22 04:58:18;;;;;;;8.10;3.25;;;;;;;;;;5091137;28;20048;-73
2023/01/22 05:00:48;;;;;;;13.25;3.80;;;;;;;;;;5090780;28;20048;-72
2023/01/22 05:03:19;;;;;;;9.68;3.08;;;;;;;;;;5090570;28;20052;-72
2023/01/22 05:05:49;;;;;;;15.48;2.78;;;;;;;;;;5091178;28;20063;-73
2023/01/22 05:08:21;;;;;;;9.57;3.05;;;;;;;;;;5091109;28;20052;-72
2023/01/22 05:10:51;;;;;;;6.80;3.00;;;;;;;;;;5090153;28;20696;-73
2023/01/22 05:13:28;;;;;;;6.20;3.00;;;;;;;;;;5090711;28;20044;-74
2023/01/22 05:15:59;;;;;;;7.03;2.67;;;;;;;;;;5090721;28;20481;-73
2023/01/22 05:18:29;;;;;;;11.25;2.65;;;;;;;;;;5089927;28;20051;-73
2023/01/22 05:21:02;;;;;;;7.88;2.72;;;;;;;;;;5091233;28;20070;-73
2023/01/22 05:23:34;;;;;;;9.15;3.28;;;;;;;;;;5090633;28;20058;-73
2023/01/22 05:26:04;;;;;;;5.25;3.00;;;;;;;;;;5090606;28;20044;-73
2023/01/22 05:28:56;;;;;;;6.63;2.95;;;;;;;;;;5091001;28;20807;-72
2023/01/22 05:31:46;;;;;;;15.70;3.50;;;;;;;;;;5090887;28;20055;-73
2023/01/22 05:34:27;;;;;;;8.23;3.00;;;;;;;;;;5090185;28;20421;-72
2023/01/22 05:36:57;;;;;;;5.00;3.03;;;;;;;;;;5090179;28;20047;-73
2023/01/22 05:39:31;;;;;;;11.40;2.60;;;;;;;;;;5089617;28;20059;-73
2023/01/22 05:42:05;;;;;;;5.07;2.53;;;;;;;;;;5090352;28;20058;-73
2023/01/22 05:44:36;;;;;;;9.68;2.78;;;;;;;;;;5089714;28;20051;-74
2023/01/22 05:47:07;;;;;;;11.63;3.53;;;;;;;;;;5090377;28;20052;-72
2023/01/22 05:50:13;;;;;;;7.82;3.33;;;;;;;;;;5045859;28;20475;-72
2023/01/22 05:52:46;;;;;;;6.47;2.60;;;;;;;;;;5098873;28;20056;-73
2023/01/22 05:55:20;;;;;;;9.45;3.45;;;;;;;;;;5090243;28;20056;-74
2023/01/22 05:57:51;;;;;;;6.30;3.08;;;;;;;;;;5090481;28;20044;-72
2023/01/22 06:00:22;;;;;;;3.90;3.10;;;;;;;;;;5090330;28;20052;-73
2023/01/22 06:03:00;;;;;;;2.65;2.45;;;;;;;;;;5090098;28;20059;-75
2023/01/22 06:05:39;;;;;;;10.68;2.60;;;;;;;;;;5090164;28;20400;-73
2023/01/22 06:08:10;;;;;;;8.60;2.95;;;;;;;;;;5089667;28;20056;-74
2023/01/22 06:10:51;;;;;;;12.20;3.20;;;;;;;;;;5089319;28;20059;-73
2023/01/22 06:13:22;;;;;;;4.00;2.83;;;;;;;;;;5109184;28;20040;-72
2023/01/22 06:15:57;;;;;;;;;;;;;;;;;;5090484;28;20047;-72
2023/01/22 06:18:54;;;;;;;3.95;2.88;;;;;;;;;;5108646;28;19923;-73
2023/01/22 06:21:28;;;;;;;6.80;2.78;;;;;;;;;;5089752;28;20401;-73
2023/01/22 06:23:58;;;;;;;15.77;3.03;;;;;;;;;;5089243;28;20056;-73
2023/01/22 06:26:30;;;;;;;5.95;3.75;;;;;;;;;;5089484;28;20055;-72
2023/01/22 06:29:02;;;;;;;12.80;3.60;;;;;;;;;;5089484;28;20047;-73
2023/01/22 06:31:33;;;;;;;11.68;3.15;;;;;;;;;;5088927;28;20678;-73
2023/01/22 06:34:08;;;;;;;8.07;3.03;;;;;;;;;;5089091;28;20489;-73
2023/01/22 06:36:39;;;;;;;12.38;3.17;;;;;;;;;;5089699;28;20054;-72
2023/01/22 06:39:11;;;;;;;14.50;3.70;;;;;;;;;;5088886;28;20058;-73
2023/01/22 06:41:50;;;;;;;9.55;3.25;;;;;;;;;;5089274;28;20070;-72
2023/01/22 06:44:22;;;;;;;8.40;3.60;;;;;;;;;;5088995;28;20051;-72
2023/01/22 06:46:53;;;;;;;9.50;3.22;;;;;;;;;;5088546;28;20051;-73
2023/01/22 06:49:27;;;;;;;9.10;3.00;;;;;;;;;;5088670;28;20047;-73
2023/01/22 06:51:58;;;;;;;9.15;3.65;;;;;;;;;;5107799;28;20044;-73
2023/01/22 06:54:30;;;;;;;8.18;2.78;;;;;;;;;;5088213;28;20524;-72
2023/01/22 06:57:04;;;;;;;7.28;3.25;;;;;;;;;;5089062;28;20052;-72
2023/01/22 06:59:37;;;;;;;10.50;3.05;;;;;;;;;;5088864;28;20051;-72
2023/01/22 07:02:20;;;;;;;12.07;3.42;;;;;;;;;;5107655;28;20044;-73
2023/01/22 07:04:51;;;;;;;12.20;3.10;;;;;;;;;;5090556;28;20058;-72
2023/01/22 07:07:22;;;;;;;7.80;2.70;;;;;;;;;;5089867;28;20051;-72
2023/01/22 07:09:52;;;;;;;4.20;3.28;;;;;;;;;;5107326;28;20051;-72
2023/01/22 07:12:22;;;;;;;8.43;3.05;;;;;;;;;;5107225;28;20456;-73
2023/01/22 07:14:52;;;;;;;10.27;3.70;;;;;;;;;;5107010;28;20052;-72
2023/01/22 07:17:22;;;;;;;10.95;2.92;;;;;;;;;;5108069;28;20520;-73
2023/01/22 07:19:52;;;;;;;8.10;3.03;;;;;;;;;;5107327;28;20046;-72
2023/01/22 07:22:23;;;;;;;8.07;2.72;;;;;;;;;;5107215;28;20042;-73
2023/01/22 07:24:54;;;;;;;6.45;2.92;;;;;;;;;;5107207;28;20048;-72
2023/01/22 07:27:24;;;;;;;5.47;2.88;;;;;;;;;;5107177;28;20044;-73
2023/01/22 07:29:54;;;;;;;7.43;3.20;;;;;;;;;;5106731;28;20047;-72
2023/01/22 07:32:24;;;;;;;9.30;3.15;;;;;;;;;;5107946;28;20584;-73
2023/01/22 07:34:55;;;;;;;9.23;3.10;;;;;;;;;;5107681;28;20039;-72
2023/01/22 07:37:25;;;;;;;9.40;3.42;;;;;;;;;;5107368;28;20046;-73
2023/01/22 07:39:56;;;;;;;15.80;2.97;;;;;;;;;;5107052;28;20052;-73
2023/01/22 07:42:33;;;;;;;7.50;3.58;;;;;;;;;;5106798;28;20059;-72
2023/01/22 07:45:07;;;;;;;9.10;2.80;;;;;;;;;;5107562;28;20039;-73
2023/01/22 07:47:38;;;;;;;9.00;2.95;;;;;;;;;;5106291;28;20043;-72
2023/01/22 07:50:08;;;;;;;16.38;3.80;;;;;;;;;;5106685;28;20048;-72
2023/01/22 07:52:39;;;;;;;10.23;3.30;;;;;;;;;;5107126;28;20055;-72
2023/01/22 07:55:09;;;;;;;14.13;3.03;;;;;;;;;;5107172;28;20040;-73
2023/01/22 07:57:39;;;;;;;12.77;3.45;;;;;;;;;;5106917;28;20417;-73
2023/01/22 08:00:10;;;;;;;8.60;3.00;;;;;;;;;;5107276;28;20502;-73
2023/01/22 08:02:42;;;;;;;14.07;3.20;;;;;;;;;;5106757;28;20093;-72
2023/01/22 08:05:13;;;;;;;8.15;3.55;;;;;;;;;;5106842;28;20039;-73
2023/01/22 08:07:45;;;;;;;9.10;3.05;;;;;;;;;;5106904;28;20393;-73
2023/01/22 08:10:16;;;;;;;6.25;3.30;;;;;;;;;;5106098;28;20070;-73
2023/01/22 08:12:46;;;;;;;9.10;3.13;;;;;;;;;;5106515;28;20885;-72
2023/01/22 08:15:17;;;;;;;6.28;3.35;;;;;;;;;;5106594;28;20050;-73
2023/01/22 08:17:50;;;;;;;8.55;2.75;;;;;;;;;;5087571;28;20577;-72
2023/01/22 08:20:20;;;;;;;9.35;2.90;;;;;;;;;;5106402;28;20052;-73
2023/01/22 08:22:51;;;;;;;10.70;3.25;;;;;;;;;;5106304;28;20059;-72
2023/01/22 08:25:21;;;;;;;15.55;3.78;;;;;;;;;;5107227;28;20043;-73
2023/01/22 08:27:52;;;;;;;6.88;3.20;;;;;;;;;;5106539;28;20044;-72
2023/01/22 08:30:22;;;;;;;7.47;3.80;;;;;;;;;;5106752;28;20047;-73
2023/01/22 08:32:53;;;;;;;13.15;3.90;;;;;;;;;;5106320;28;20070;-72
2023/01/22 08:35:25;;;;;;;9.05;4.10;;;;;;;;;;5106669;28;20047;-73
2023/01/22 08:38:00;;;;;;;9.52;3.60;;;;;;;;;;5106781;28;20063;-72
2023/01/22 08:40:30;;;;;;;11.18;3.65;;;;;;;;;;5106309;28;20489;-72
2023/01/22 08:43:01;;;;;;;9.40;3.55;;;;;;;;;;5105525;28;20497;-73
2023/01/22 08:45:32;;;;;;;11.70;3.70;;;;;;;;;;5105805;28;20048;-73
2023/01/22 08:48:02;;;;;;;11.40;3.90;;;;;;;;;;5105647;28;20043;-72
2023/01/22 08:50:32;;;;;;;4.70;3.53;;;;;;;;;;5106545;28;20409;-72
2023/01/22 08:53:03;;;;;;;5.82;3.72;;;;;;;;;;5107310;28;20046;-73
2023/01/22 08:55:35;;;;;;;6.30;3.13;;;;;;;;;;5109732;28;20040;-72
2023/01/22 08:58:05;;;;;;;12.00;3.65;;;;;;;;;;5109803;28;20054;-73
2023/01/22 09:00:35;;;;;;;9.05;4.93;;;;;;;;;;5109850;28;20148;-72
2023/01/22 09:03:05;;;;;;;7.47;4.50;;;;;;;;;;5109690;28;20051;-72
2023/01/22 09:05:38;;;;;;;7.57;3.50;;;;;;;;;;5109683;28;20047;-72
2023/01/22 09:08:09;;;;;;;10.63;4.07;;;;;;;;;;5109832;28;20780;-72
2023/01/22 09:10:42;;;;;;;11.35;4.00;;;;;;;;;;5109535;28;20043;-72
2023/01/22 09:13:13;;;;;;;6.75;4.72;;;;;;;;;;5108522;28;20066;-73
2023/01/22 09:15:43;;;;;;;10.77;4.28;;;;;;;;;;5091679;28;20531;-72
2023/01/22 09:18:13;;;;;;;10.20;3.92;;;;;;;;;;5090635;28;20047;-72
2023/01/22 09:20:44;;;;;;;13.82;4.60;;;;;;;;;;5109824;28;20520;-73
2023/01/22 09:23:16;;;;;;;10.80;4.22;;;;;;;;;;5109255;28;20504;-72
2023/01/22 09:25:47;;;;;;;7.68;4.05;;;;;;;;;;5109486;28;20048;-73
2023/01/22 09:28:17;;;;;;;12.57;4.90;;;;;;;;;;5109214;28;20040;-74
2023/01/22 09:30:49;;;;;;;11.55;4.40;;;;;;;;;;5109370;28;20039;-73
2023/01/22 09:33:20;;;;;;;7.38;3.78;;;;;;;;;;5091049;28;20062;-73
2023/01/22 09:35:50;;;;;;;8.63;3.88;;;;;;;;;;5109153;28;20048;-73
2023/01/22 09:38:21;;;;;;;9.30;3.90;;;;;;;;;;5109024;28;20412;-73
2023/01/22 09:41:01;;;;;;;8.68;4.53;;;;;;;;;;5109536;28;20474;-73
2023/01/22 09:44:11;;;;;;;7.40;4.57;;;;;;;;;;5109706;28;20044;-73
2023/01/22 09:46:53;;;;;;;7.20;4.72;;;;;;;;;;5090220;28;20052;-73
2023/01/22 09:49:27;;;;;;;;;;;;;;;;;;5109109;28;20524;-73
2023/01/22 09:52:00;;;;;;;7.63;5.25;;;;;;;;;;5108375;28;19930;-73
2023/01/22 09:54:34;;;;;;;8.77;4.88;;;;;;;;;;5091794;28;20044;-72
2023/01/22 09:57:05;;;;;;;10.07;5.32;;;;;;;;;;5108819;28;20043;-73
2023/01/22 09:59:49;;;;;;;11.07;4.95;;;;;;;;;;5109172;28;20054;-73
2023/01/22 10:02:46;;;;;;;11.25;4.65;;;;;;;;;;5108580;28;20385;-73
2023/01/22 10:05:23;;;;;;;11.10;6.32;;;;;;;;;;5108499;28;20032;-72
2023/01/22 10:08:30;;;;;;;11.05;5.18;;;;;;;;;;5108941;28;20048;-72
2023/01/22 10:11:00;;;;;;;15.02;4.85;;;;;;;;;;5069237;28;20113;-73
2023/01/22 10:13:36;;;;;;;7.60;4.22;;;;;;;;;;5108306;28;20108;-72
2023/01/22 10:16:08;;;;;;;10.68;4.60;;;;;;;;;;5107298;28;20054;-73
2023/01/22 10:18:52;;;;;;;8.25;3.83;;;;;;;;;;5090043;28;20050;-73
2023/01/22 10:21:33;;;;;;;9.30;3.60;;;;;;;;;;5106593;28;20052;-73
2023/01/22 10:24:07;;;;;;;7.70;4.43;;;;;;;;;;5108390;28;20387;-73
2023/01/22 10:26:51;;;;;;;10.90;4.05;;;;;;;;;;5108387;28;20047;-74
2023/01/22 10:29:39;;;;;;;8.43;4.00;;;;;;;;;;5108262;28;20513;-72
2023/01/22 10:32:26;;;;;;;4.53;3.05;;;;;;;;;;5088743;28;20441;-73
2023/01/22 10:35:03;;;;;;;7.10;3.47;;;;;;;;;;5107813;28;20043;-73
2023/01/22 10:37:52;;;;;;;8.63;3.72;;;;;;;;;;5108259;28;20048;-72
2023/01/22 10:51:17;;;;;;;14.10;3.70;;;;;;;;;;5103211;27;20481;-74
2023/01/22 10:53:56;;;;;;;8.55;3.20;;;;;;;;;;5104454;28;20048;-74
2023/01/22 10:56:35;;;;;;;7.95;2.90;;;;;;;;;;5104126;28;20043;-74
2023/01/22 10:59:29;;;;;;;5.05;2.85;;;;;;;;;;5104070;28;20051;-74
2023/01/22 11:02:11;;;;;;;;;;;;;;;;;;5102637;28;20402;-74
2023/01/22 11:04:42;;;;;;;6.90;2.75;;;;;;;;;;5104165;28;19919;-74
2023/01/22 11:07:23;;;;;;;7.97;2.80;;;;;;;;;;5104083;28;20158;-73
2023/01/22 11:10:17;;;;;;;6.00;2.92;;;;;;;;;;5104092;28;20039;-72
2023/01/22 11:12:55;;;;;;;;;;;;;;;;;;5102901;28;20047;-73
2023/01/22 11:15:48;;;;;;;5.30;3.08;;;;;;;;;;5102644;28;20654;-73
2023/01/22 11:18:38;;;;;;;7.70;3.08;;;;;;;;;;5103547;28;20051;-73
2023/01/22 11:21:21;;;;;;;5.13;2.70;;;;;;;;;;5103946;28;20051;-73
2023/01/22 11:24:03;;;;;;;9.20;3.05;;;;;;;;;;5103581;28;20056;-75
2023/01/22 11:26:47;;;;;;;9.65;3.10;;;;;;;;;;5103530;28;20052;-72
2023/01/22 11:29:29;;;;;;;8.23;3.17;;;;;;;;;;5104139;28;20051;-73
2023/01/22 11:32:12;;;;;;;9.18;2.70;;;;;;;;;;5103672;28;20047;-72
2023/01/22 11:35:09;;;;;;;4.88;3.13;;;;;;;;;;5102899;28;20040;-72
2023/01/22 11:37:46;;;;;;;5.65;2.83;;;;;;;;;;5103727;28;20039;-73
2023/01/22 11:40:29;;;;;;;6.20;2.70;;;;;;;;;;5103014;28;20055;-73
2023/01/22 11:43:36;;;;;;;8.60;2.97;;;;;;;;;;5104103;28;20044;-73
2023/01/22 11:46:21;;;;;;;4.68;2.78;;;;;;;;;;5072299;28;20063;-72
2023/01/22 11:49:18;;;;;;;7.00;2.92;;;;;;;;;;5102655;28;20048;-72
2023/01/22 11:52:02;;;;;;;4.50;2.47;;;;;;;;;;5091901;28;20520;-74
2023/01/22 11:54:54;;;;;;;6.15;2.50;;;;;;;;;;5089586;28;20494;-73
2023/01/22 11:57:35;;;;;;;7.75;2.67;;;;;;;;;;5089320;28;20422;-73
2023/01/22 12:00:21;;;;;;;6.68;2.58;;;;;;;;;;5087802;28;20533;-72
2023/01/22 12:03:01;;;;;;;7.68;2.50;;;;;;;;;;5089700;28;20040;-73
2023/01/22 12:06:11;;;;;;;3.22;2.10;;;;;;;;;;5089507;28;20047;-73
2023/01/22 12:09:05;;;;;;;3.78;2.15;;;;;;;;;;5088473;28;20410;-72
2023/01/22 12:12:03;;;;;;;5.15;2.10;;;;;;;;;;5090019;28;20048;-73
2023/01/22 12:14:48;;;;;;;4.68;2.03;;;;;;;;;;5089005;28;20055;-73
2023/01/22 12:17:31;;;;;;;5.55;1.92;;;;;;;;;;5088594;28;20059;-72
2023/01/22 12:20:16;;;;;;;5.15;2.28;;;;;;;;;;5088769;28;20040;-75
2023/01/22 12:22:58;;;;;;;4.53;3.17;;;;;;;;;;5087291;28;20518;-75
2023/01/22 12:25:46;;;;;;;6.57;2.42;;;;;;;;;;5088564;28;20063;-76
2023/01/22 12:28:30;;;;;;;4.10;2.38;;;;;;;;;;5088861;28;20422;-74
2023/01/22 12:31:27;;;;;;;4.25;2.25;;;;;;;;;;5088925;28;20048;-75
2023/01/22 12:34:10;;;;;;;7.38;2.83;;;;;;;;;;5080743;28;20055;-74
2023/01/22 12:36:51;;;;;;;6.78;2.40;;;;;;;;;;5072092;28;20433;-74
2023/01/22 12:39:40;;;;;;;3.90;2.45;;;;;;;;;;5088930;28;20043;-75
2023/01/22 12:42:35;;;;;;;4.40;2.45;;;;;;;;;;5088577;28;20406;-75
2023/01/22 12:45:40;;;;;;;4.82;2.28;;;;;;;;;;5088023;28;20071;-74
2023/01/22 12:48:40;;;;;;;5.57;2.33;;;;;;;;;;5088032;28;20502;-74
2023/01/22 12:51:43;;;;;;;5.75;2.30;;;;;;;;;;5087918;28;20418;-75
2023/01/22 12:54:28;;;;;;;3.45;2.10;;;;;;;;;;5088158;28;20040;-74
2023/01/22 12:57:09;;;;;;;3.95;2.28;;;;;;;;;;5087889;28;21093;-76
2023/01/22 12:59:46;;;;;;;9.25;2.50;;;;;;;;;;5088004;28;20067;-75
2023/01/22 13:02:27;;;;;;;4.60;2.17;;;;;;;;;;5085954;28;20052;-75
2023/01/22 13:05:16;;;;;;;10.27;2.55;;;;;;;;;;5088092;28;20048;-75
2023/01/22 13:07:50;;;;;;;6.40;2.20;;;;;;;;;;5087872;28;20044;-75
2023/01/22 13:10:24;;;;;;;8.95;2.28;;;;;;;;;;5085539;28;20047;-75
2023/01/22 13:13:14;;;;;;;5.82;2.75;;;;;;;;;;5088364;28;20048;-76
2023/01/22 13:15:55;;;;;;;10.43;2.80;;;;;;;;;;5088206;28;20059;-74
2023/01/22 13:18:30;;;;;;;5.78;2.78;;;;;;;;;;5086264;28;20063;-76
2023/01/22 13:21:07;;;;;;;6.90;2.50;;;;;;;;;;5086131;28;20055;-74
2023/01/22 13:23:44;;;;;;;3.95;2.40;;;;;;;;;;5088362;28;20056;-74
2023/01/22 13:26:25;;;;;;;3.85;2.15;;;;;;;;;;5088000;28;20498;-74
2023/01/22 13:29:01;;;;;;;5.78;2.22;;;;;;;;;;5087995;28;20384;-74
2023/01/22 13:31:33;;;;;;;2.97;1.92;;;;;;;;;;5087720;28;20047;-76
2023/01/22 13:34:07;;;;;;;5.97;2.40;;;;;;;;;;5086770;28;20044;-74
2023/01/22 13:36:43;;;;;;;5.22;2.10;;;;;;;;;;5086222;28;20055;-79
2023/01/22 13:39:26;;;;;;;4.28;2.38;;;;;;;;;;5087215;28;20043;-75
2023/01/22 13:42:02;;;;;;;7.55;2.10;;;;;;;;;;5085125;28;20059;-74
2023/01/22 13:44:42;;;;;;;3.75;2.17;;;;;;;;;;5086728;28;20505;-76
2023/01/22 13:47:25;;;;;;;5.10;2.03;;;;;;;;;;5086797;28;20502;-76
2023/01/22 13:49:56;;;;;;;5.47;2.08;;;;;;;;;;5085002;28;20071;-75
2023/01/22 13:52:30;;;;;;;3.90;2.17;;;;;;;;;;5087385;28;20063;-74
2023/01/22 13:55:19;;;;;;;6.78;3.20;;;;;;;;;;5084198;28;20040;-75
2023/01/22 13:58:03;;;;;;;3.42;1.83;;;;;;;;;;5065863;28;20553;-74
2023/01/22 14:00:38;;;;;;;3.58;1.95;;;;;;;;;;5064417;28;20059;-74
2023/01/22 14:03:22;;;;;;;6.72;1.75;;;;;;;;;;5067267;28;20052;-76
2023/01/22 14:06:14;;;;;;;2.33;1.77;;;;;;;;;;5067090;28;20048;-74
2023/01/22 14:08:53;;;;;;;13.90;2.08;;;;;;;;;;5067088;28;20032;-75
2023/01/22 14:11:24;;;;;;;4.90;1.90;;;;;;;;;;5066346;28;20399;-74
2023/01/22 14:13:59;;;;;;;5.25;3.08;;;;;;;;;;5066190;28;20056;-73
2023/01/22 14:16:40;;;;;;;4.82;1.92;;;;;;;;;;5064479;28;20044;-75
2023/01/22 14:19:15;;;;;;;3.40;1.98;;;;;;;;;;5060446;28;20052;-75
2023/01/22 14:21:53;;;;;;;;;;;;;;;;;;5050198;28;20059;-74
2023/01/22 14:24:24;;;;;;;4.35;1.60;;;;;;;;;;5066933;28;19924;-76
2023/01/22 14:26:56;;;;;;;2.22;1.80;;;;;;;;;;5066784;28;20056;-74
2023/01/22 14:29:26;;;;;;;3.50;1.95;;;;;;;;;;5066729;28;20052;-77
2023/01/22 14:31:57;;;;;;;2.88;1.88;;;;;;;;;;5065949;28;20043;-73
2023/01/22 14:34:30;;;;;;;3.47;2.10;;;;;;;;;;5066156;28;20055;-74
2023/01/22 14:37:27;;;;;;;7.22;5.97;;;;;;;;;;5061749;28;20604;-74
2023/01/22 14:39:58;;;;;;;3.67;2.50;;;;;;;;;;5063015;28;20056;-74
2023/01/22 14:42:39;;;;;;;4.95;2.33;;;;;;;;;;5063819;28;20103;-73
2023/01/22 14:45:11;;;;;;;1.92;1.70;;;;;;;;;;5067453;28;20040;-74
2023/01/22 14:47:51;;;;;;;;;;;;;;;;;;5048611;28;20060;-76
2023/01/22 14:50:34;;;;;;;4.25;2.20;;;;;;;;;;5064405;28;19927;-73
2023/01/22 14:53:15;;;;;;;4.68;2.30;;;;;;;;;;5065461;28;20056;-77
2023/01/22 14:55:48;;;;;;;6.82;2.30;;;;;;;;;;5065687;28;20068;-74
2023/01/22 14:58:19;;;;;;;5.03;2.20;;;;;;;;;;5066178;28;20053;-75
2023/01/22 15:00:49;;;;;;;3.55;2.05;;;;;;;;;;5066557;28;20047;-78
2023/01/22 15:03:24;;;;;;;2.17;1.88;;;;;;;;;;5066170;28;20045;-76
2023/01/22 15:05:55;;;;;;;4.32;2.10;;;;;;;;;;5063492;28;20049;-75
2023/01/22 15:08:36;;;;;;;2.75;2.20;;;;;;;;;;5058235;28;20052;-73
2023/01/22 15:11:10;;;;;;;3.92;2.70;;;;;;;;;;5081634;28;20502;-75
2023/01/22 15:13:48;;;;;;;2.33;1.88;;;;;;;;;;5081802;28;20048;-74
2023/01/22 15:16:31;;;;;;;5.63;2.35;;;;;;;;;;5079671;28;20059;-73
2023/01/22 15:19:02;;;;;;;3.35;2.42;;;;;;;;;;5066971;28;20048;-74
2023/01/22 15:21:32;;;;;;;3.47;2.15;;;;;;;;;;5074847;28;20048;-74
2023/01/22 15:24:05;;;;;;;3.70;1.90;;;;;;;;;;5086274;28;20494;-74
2023/01/22 15:26:37;;;;;;;3.25;2.00;;;;;;;;;;5070863;28;20048;-75
2023/01/22 15:29:10;;;;;;;3.97;2.30;;;;;;;;;;5085646;28;20525;-75
2023/01/22 15:32:02;;;;;;;2.60;2.00;;;;;;;;;;5090001;28;20067;-76
2023/01/22 15:34:33;;;;;;;2.80;2.10;;;;;;;;;;5088885;28;20059;-74
2023/01/22 15:37:03;;;;;;;2.92;1.83;;;;;;;;;;5089443;28;20050;-74
2023/01/22 15:39:34;;;;;;;1.83;1.50;;;;;;;;;;5089810;28;20154;-73
2023/01/22 15:42:05;;;;;;;6.30;3.00;;;;;;;;;;5089309;28;20040;-74
2023/01/22 15:44:37;;;;;;;3.20;2.90;;;;;;;;;;5089750;28;20036;-77
2023/01/22 15:47:10;;;;;;;5.72;2.78;;;;;;;;;;5091957;28;20047;-76
2023/01/22 15:49:44;;;;;;;4.53;2.40;;;;;;;;;;5071838;28;20556;-76
2023/01/22 15:52:14;;;;;;;6.15;2.92;;;;;;;;;;5089466;28;20048;-73
2023/01/22 15:54:47;;;;;;;4.60;2.58;;;;;;;;;;5088704;28;20779;-73